createdAt,value
2018-12-08T00:00:59.188Z,10.02
2018-12-08T00:02:09.374Z,10.02
2018-12-08T00:03:19.322Z,10.02
2018-12-08T00:04:29.268Z,9.95
2018-12-08T00:05:39.250Z,9.94
2018-12-08T00:06:49.188Z,9.92
2018-12-08T00:07:58.905Z,9.95
2018-12-08T00:09:08.591Z,9.85
2018-12-08T00:10:18.306Z,9.85
2018-12-08T00:11:28.239Z,9.81
2018-12-08T00:12:38.216Z,9.8
2018-12-08T00:13:48.175Z,9.69
2018-12-08T00:14:57.877Z,9.62
2018-12-08T00:16:07.827Z,9.59
2018-12-08T00:17:17.767Z,9.47
2018-12-08T00:18:27.463Z,9.47
2018-12-08T00:19:37.152Z,9.51
2018-12-08T00:20:46.838Z,9.52
2018-12-08T00:21:56.800Z,9.49
2018-12-08T00:23:06.756Z,9.44
2018-12-08T00:24:16.207Z,9.47
2018-12-08T00:25:26.144Z,9.4
2018-12-08T00:26:36.087Z,9.34
2018-12-08T00:27:45.787Z,9.37
2018-12-08T00:28:55.482Z,9.39
2018-12-08T00:30:05.180Z,9.3
2018-12-08T00:31:14.859Z,9.31
2018-12-08T00:32:24.809Z,9.33
2018-12-08T00:33:34.759Z,9.33
2018-12-08T00:34:44.191Z,9.22
2018-12-08T00:35:54.145Z,9.19
2018-12-08T00:37:04.089Z,9.22
2018-12-08T00:38:14.020Z,9.12
2018-12-08T00:39:23.952Z,9.05
2018-12-08T00:40:33.653Z,9
2018-12-08T00:41:43.642Z,8.92
2018-12-08T00:42:53.591Z,8.95
2018-12-08T00:44:03.529Z,8.84
2018-12-08T00:45:13.231Z,8.78
2018-12-08T00:46:23.166Z,8.74
2018-12-08T00:47:33.110Z,8.6
2018-12-08T00:48:42.798Z,8.52
2018-12-08T00:49:52.730Z,8.32
2018-12-08T00:51:02.442Z,8.35
2018-12-08T00:52:11.878Z,8.21
2018-12-08T00:53:21.669Z,8.23
2018-12-08T00:54:31.356Z,8.16
2018-12-08T00:55:41.301Z,8.14
2018-12-08T00:56:51.240Z,8.09
2018-12-08T00:58:01.309Z,8.14
2018-12-08T00:59:11.011Z,8.09
2018-12-08T01:00:21.085Z,8.01
2018-12-08T01:01:30.785Z,8.01
2018-12-08T01:02:40.728Z,8.06
2018-12-08T01:03:50.670Z,7.99
2018-12-08T01:05:00.379Z,7.95
2018-12-08T01:06:10.318Z,7.98
2018-12-08T01:07:20.256Z,7.84
2018-12-08T01:08:30.213Z,7.87
2018-12-08T01:09:40.246Z,7.88
2018-12-08T01:10:50.030Z,7.84
2018-12-08T01:11:59.989Z,7.84
2018-12-08T01:13:09.946Z,7.9
2018-12-08T01:14:19.885Z,7.87
2018-12-08T01:15:29.820Z,7.91
2018-12-08T01:16:39.752Z,7.91
2018-12-08T01:17:49.706Z,7.83
2018-12-08T01:18:59.406Z,7.93
2018-12-08T01:20:09.351Z,7.87
2018-12-08T01:21:19.047Z,7.85
2018-12-08T01:22:28.735Z,7.88
2018-12-08T01:23:38.674Z,7.87
2018-12-08T01:24:48.836Z,7.88
2018-12-08T01:25:58.542Z,7.9
2018-12-08T01:27:08.234Z,7.87
2018-12-08T01:28:18.217Z,7.96
2018-12-08T01:29:28.163Z,7.99
2018-12-08T01:30:38.200Z,8.01
2018-12-08T01:31:48.150Z,7.96
2018-12-08T01:32:59.139Z,8.01
2018-12-08T01:34:09.086Z,7.95
2018-12-08T01:35:18.790Z,8.03
2018-12-08T01:36:28.490Z,8.02
2018-12-08T01:37:38.433Z,8.03
2018-12-08T01:38:48.382Z,8.01
2018-12-08T01:39:58.322Z,8.06
2018-12-08T01:41:08.284Z,7.98
2018-12-08T01:42:17.961Z,8.01
2018-12-08T01:43:27.747Z,8.02
2018-12-08T01:44:37.443Z,8.01
2018-12-08T01:45:47.114Z,8.02
2018-12-08T01:46:57.054Z,7.96
2018-12-08T01:48:07.021Z,7.9
2018-12-08T01:49:16.716Z,8.01
2018-12-08T01:50:26.657Z,7.9
2018-12-08T01:51:36.690Z,8.05
2018-12-08T01:52:46.618Z,8.02
2018-12-08T01:53:56.314Z,8.05
2018-12-08T01:55:06.239Z,7.96
2018-12-08T01:56:16.182Z,7.95
2018-12-08T01:57:26.120Z,7.99
2018-12-08T01:58:35.824Z,7.98
2018-12-08T01:59:45.772Z,7.95
2018-12-08T02:00:55.461Z,8.02
2018-12-08T02:02:04.655Z,8.01
2018-12-08T02:03:14.602Z,8.02
2018-12-08T02:04:24.536Z,7.93
2018-12-08T02:05:34.219Z,7.93
2018-12-08T02:06:43.664Z,8.01
2018-12-08T02:07:52.603Z,7.99
2018-12-08T02:09:02.278Z,7.88
2018-12-08T02:10:12.221Z,7.93
2018-12-08T02:11:29.594Z,8.02
2018-12-08T02:12:39.287Z,8.01
2018-12-08T02:13:49.232Z,8.01
2018-12-08T02:14:58.922Z,7.98
2018-12-08T02:16:08.863Z,8.09
2018-12-08T02:17:18.539Z,8.17
2018-12-08T02:18:28.216Z,8.11
2018-12-08T02:19:38.151Z,8.08
2018-12-08T02:20:47.600Z,8.17
2018-12-08T02:21:57.534Z,8.11
2018-12-08T02:23:07.475Z,8.09
2018-12-08T02:24:17.161Z,8.06
2018-12-08T02:25:27.102Z,8.01
2018-12-08T02:26:37.040Z,8.01
2018-12-08T02:27:46.973Z,8.05
2018-12-08T02:28:56.930Z,8.03
2018-12-08T02:30:06.667Z,8.03
2018-12-08T02:31:16.646Z,8.01
2018-12-08T02:32:26.343Z,7.96
2018-12-08T02:33:36.168Z,7.96
2018-12-08T02:34:46.144Z,8.02
2018-12-08T02:35:55.869Z,8.01
2018-12-08T02:37:05.576Z,7.95
2018-12-08T02:38:15.279Z,7.87
2018-12-08T02:39:25.230Z,7.91
2018-12-08T02:40:34.669Z,7.83
2018-12-08T02:41:44.626Z,7.85
2018-12-08T02:42:54.326Z,7.87
2018-12-08T02:44:04.265Z,7.9
2018-12-08T02:45:13.971Z,7.81
2018-12-08T02:46:23.909Z,7.87
2018-12-08T02:47:33.854Z,7.87
2018-12-08T02:48:43.811Z,7.88
2018-12-08T02:49:53.251Z,7.91
2018-12-08T02:51:03.213Z,7.87
2018-12-08T02:52:12.914Z,7.87
2018-12-08T02:53:22.707Z,7.9
2018-12-08T02:54:32.657Z,7.91
2018-12-08T02:55:42.614Z,7.91
2018-12-08T02:56:52.590Z,7.91
2018-12-08T02:58:02.524Z,7.91
2018-12-08T02:59:12.463Z,7.84
2018-12-08T03:00:22.469Z,7.9
2018-12-08T03:01:31.658Z,7.93
2018-12-08T03:02:41.607Z,7.95
2018-12-08T03:03:51.562Z,8.01
2018-12-08T03:05:01.640Z,7.95
2018-12-08T03:06:11.611Z,7.88
2018-12-08T03:07:21.562Z,7.88
2018-12-08T03:08:31.612Z,7.93
2018-12-08T03:09:41.557Z,7.91
2018-12-08T03:10:51.630Z,7.95
2018-12-08T03:12:01.319Z,7.95
2018-12-08T03:13:11.255Z,7.99
2018-12-08T03:14:20.970Z,7.9
2018-12-08T03:15:30.905Z,7.96
2018-12-08T03:16:40.394Z,7.88
2018-12-08T03:17:49.878Z,7.91
2018-12-08T03:18:59.183Z,7.98
2018-12-08T03:20:08.859Z,8.05
2018-12-08T03:21:18.555Z,7.96
2018-12-08T03:22:28.501Z,7.91
2018-12-08T03:23:38.186Z,8.06
2018-12-08T03:24:47.879Z,8.01
2018-12-08T03:25:57.809Z,7.99
2018-12-08T03:27:07.511Z,8.05
2018-12-08T03:28:17.437Z,8.06
2018-12-08T03:29:27.391Z,8.03
2018-12-08T03:30:37.080Z,8.01
2018-12-08T03:31:47.054Z,8.09
2018-12-08T03:32:56.777Z,8.03
2018-12-08T03:34:06.486Z,8.01
2018-12-08T03:35:16.508Z,7.99
2018-12-08T03:36:26.457Z,8.02
2018-12-08T03:37:35.903Z,8.01
2018-12-08T03:38:45.593Z,7.98
2018-12-08T03:39:55.285Z,8.01
2018-12-08T03:41:04.974Z,7.91
2018-12-08T03:42:14.923Z,7.96
2018-12-08T03:43:24.935Z,7.91
2018-12-08T03:44:34.624Z,7.88
2018-12-08T03:45:44.585Z,7.81
2018-12-08T03:46:54.537Z,7.84
2018-12-08T03:48:04.424Z,7.9
2018-12-08T03:49:14.395Z,7.74
2018-12-08T03:50:24.334Z,7.77
2018-12-08T03:51:34.456Z,7.77
2018-12-08T03:52:44.394Z,7.83
2018-12-08T03:53:54.410Z,7.78
2018-12-08T03:55:04.346Z,7.75
2018-12-08T03:56:14.291Z,7.72
2018-12-08T03:57:23.741Z,7.64
2018-12-08T03:58:33.427Z,7.7
2018-12-08T03:59:43.461Z,7.74
2018-12-08T04:00:53.417Z,7.74
2018-12-08T04:02:03.105Z,7.62
2018-12-08T04:03:13.111Z,7.64
2018-12-08T04:04:23.054Z,7.59
2018-12-08T04:05:32.998Z,7.64
2018-12-08T04:06:42.939Z,7.58
2018-12-08T04:07:52.878Z,7.5
2018-12-08T04:09:02.585Z,7.53
2018-12-08T04:10:12.522Z,7.48
2018-12-08T04:11:22.490Z,7.51
2018-12-08T04:12:32.213Z,7.46
2018-12-08T04:13:41.672Z,7.53
2018-12-08T04:14:51.672Z,7.47
2018-12-08T04:16:01.618Z,7.41
2018-12-08T04:17:11.565Z,7.4
2018-12-08T04:18:21.202Z,7.29
2018-12-08T04:19:31.137Z,7.39
2018-12-08T04:20:41.070Z,7.32
2018-12-08T04:21:51.003Z,7.37
2018-12-08T04:23:00.941Z,7.32
2018-12-08T04:24:10.635Z,7.36
2018-12-08T04:25:20.327Z,7.37
2018-12-08T04:26:30.290Z,7.33
2018-12-08T04:27:39.971Z,7.39
2018-12-08T04:28:49.687Z,7.31
2018-12-08T04:29:59.624Z,7.33
2018-12-08T04:31:09.569Z,7.36
2018-12-08T04:32:19.267Z,7.36
2018-12-08T04:33:29.275Z,7.36
2018-12-08T04:34:38.976Z,7.37
2018-12-08T04:35:48.908Z,7.43
2018-12-08T04:37:00.026Z,7.37
2018-12-08T04:38:09.718Z,7.33
2018-12-08T04:39:19.513Z,7.41
2018-12-08T04:40:29.471Z,7.4
2018-12-08T04:41:39.290Z,7.37
2018-12-08T04:42:49.236Z,7.31
2018-12-08T04:43:59.171Z,7.31
2018-12-08T04:45:09.122Z,7.26
2018-12-08T04:46:18.919Z,7.28
2018-12-08T04:47:28.871Z,7.28
2018-12-08T04:48:40.634Z,7.36
2018-12-08T04:49:50.585Z,7.28
2018-12-08T04:51:00.266Z,7.22
2018-12-08T04:52:10.207Z,7.19
2018-12-08T04:53:20.150Z,7.19
2018-12-08T04:54:30.085Z,7.18
2018-12-08T04:55:40.022Z,7.32
2018-12-08T04:56:49.966Z,7.18
2018-12-08T04:57:59.902Z,7.19
2018-12-08T04:59:09.840Z,7.29
2018-12-08T05:00:19.537Z,7.31
2018-12-08T05:01:29.466Z,7.26
2018-12-08T05:02:39.418Z,7.29
2018-12-08T05:03:48.358Z,7.21
2018-12-08T05:04:58.053Z,7.19
2018-12-08T05:06:07.762Z,7.18
2018-12-08T05:07:17.325Z,7.18
2018-12-08T05:08:27.254Z,7.13
2018-12-08T05:09:37.261Z,7.07
2018-12-08T05:10:47.199Z,7.08
2018-12-08T05:11:56.887Z,6.96
2018-12-08T05:13:06.568Z,6.93
2018-12-08T05:14:16.268Z,6.95
2018-12-08T05:15:25.952Z,6.9
2018-12-08T05:16:35.639Z,6.9
2018-12-08T05:17:45.581Z,6.87
2018-12-08T05:18:55.524Z,6.86
2018-12-08T05:20:05.213Z,6.87
2018-12-08T05:21:15.161Z,6.87
2018-12-08T05:22:25.097Z,6.85
2018-12-08T05:23:35.030Z,6.83
2018-12-08T05:24:44.718Z,6.86
2018-12-08T05:25:54.643Z,6.82
2018-12-08T05:27:04.564Z,6.86
2018-12-08T05:28:14.251Z,6.95
2018-12-08T05:29:23.691Z,6.89
2018-12-08T05:30:33.629Z,6.8
2018-12-08T05:31:43.317Z,6.85
2018-12-08T05:32:53.265Z,6.87
2018-12-08T05:34:03.197Z,6.87
2018-12-08T05:35:12.638Z,6.89
2018-12-08T05:36:22.575Z,6.86
2018-12-08T05:37:32.276Z,6.85
2018-12-08T05:38:41.706Z,6.82
2018-12-08T05:39:51.400Z,6.82
2018-12-08T05:41:01.344Z,6.87
2018-12-08T05:42:11.030Z,6.85
2018-12-08T05:43:20.976Z,6.77
2018-12-08T05:44:30.912Z,6.7
2018-12-08T05:45:40.592Z,6.7
2018-12-08T05:46:49.777Z,6.7
2018-12-08T05:47:59.723Z,6.71
2018-12-08T05:49:09.656Z,6.7
2018-12-08T05:50:19.618Z,6.64
2018-12-08T05:51:29.544Z,6.7
2018-12-08T05:52:39.532Z,6.64
2018-12-08T05:53:49.235Z,6.65
2018-12-08T05:54:59.182Z,6.57
2018-12-08T05:56:08.870Z,6.62
2018-12-08T05:57:18.050Z,6.57
2018-12-08T05:58:27.981Z,6.6
2018-12-08T05:59:37.414Z,6.6
2018-12-08T06:00:47.104Z,6.56
2018-12-08T06:01:56.794Z,6.57
2018-12-08T06:03:06.727Z,6.59
2018-12-08T06:04:16.412Z,6.56
2018-12-08T06:05:26.348Z,6.62
2018-12-08T06:06:36.300Z,6.74
2018-12-08T06:07:46.239Z,6.6
2018-12-08T06:08:55.927Z,6.62
2018-12-08T06:10:05.640Z,6.67
2018-12-08T06:11:15.586Z,6.64
2018-12-08T06:12:25.532Z,6.62
2018-12-08T06:13:35.459Z,6.59
2018-12-08T06:14:45.032Z,6.64
2018-12-08T06:15:54.972Z,6.59
2018-12-08T06:17:04.654Z,6.62
2018-12-08T06:18:13.854Z,6.62
2018-12-08T06:19:23.806Z,6.6
2018-12-08T06:20:33.743Z,6.6
2018-12-08T06:21:43.787Z,6.56
2018-12-08T06:22:53.494Z,6.56
2018-12-08T06:24:03.430Z,6.57
2018-12-08T06:25:13.404Z,6.6
2018-12-08T06:26:23.354Z,6.6
2018-12-08T06:27:33.045Z,6.53
2018-12-08T06:28:43.789Z,6.5
2018-12-08T06:29:53.712Z,6.5
2018-12-08T06:31:03.658Z,6.38
2018-12-08T06:32:13.705Z,6.36
2018-12-08T06:33:23.384Z,6.38
2018-12-08T06:34:33.326Z,6.35
2018-12-08T06:35:43.256Z,6.28
2018-12-08T06:36:53.192Z,6.29
2018-12-08T06:38:02.874Z,6.34
2018-12-08T06:39:12.839Z,6.2
2018-12-08T06:40:29.112Z,6.13
2018-12-08T06:41:39.030Z,6.16
2018-12-08T06:42:48.972Z,6.19
2018-12-08T06:43:58.905Z,6.1
2018-12-08T06:45:10.427Z,6.12
2018-12-08T06:46:20.475Z,6.16
2018-12-08T06:47:30.157Z,6.1
2018-12-08T06:48:39.844Z,5.99
2018-12-08T06:49:49.530Z,6.01
2018-12-08T06:50:59.469Z,5.91
2018-12-08T06:52:09.408Z,5.97
2018-12-08T06:53:19.097Z,5.95
2018-12-08T06:54:29.044Z,6.01
2018-12-08T06:55:38.987Z,6.01
2018-12-08T06:56:48.920Z,5.95
2018-12-08T06:57:58.853Z,5.92
2018-12-08T06:59:08.640Z,5.88
2018-12-08T07:00:18.583Z,5.8
2018-12-08T07:01:28.279Z,5.95
2018-12-08T07:02:38.324Z,5.9
2018-12-08T07:03:48.100Z,5.9
2018-12-08T07:04:57.786Z,5.84
2018-12-08T07:06:07.721Z,5.72
2018-12-08T07:07:17.693Z,5.76
2018-12-08T07:08:27.393Z,5.69
2018-12-08T07:09:37.317Z,5.74
2018-12-08T07:10:47.266Z,5.79
2018-12-08T07:11:56.957Z,5.73
2018-12-08T07:13:06.642Z,5.81
2018-12-08T07:14:16.422Z,5.73
2018-12-08T07:15:26.184Z,5.72
2018-12-08T07:16:35.866Z,5.74
2018-12-08T07:17:45.804Z,5.67
2018-12-08T07:18:55.855Z,5.65
2018-12-08T07:20:05.806Z,5.65
2018-12-08T07:21:15.764Z,5.65
2018-12-08T07:22:25.701Z,5.7
2018-12-08T07:23:35.388Z,5.69
2018-12-08T07:24:45.332Z,5.72
2018-12-08T07:25:55.273Z,5.69
2018-12-08T07:27:05.233Z,5.65
2018-12-08T07:28:15.188Z,5.65
2018-12-08T07:29:26.350Z,5.72
2018-12-08T07:30:36.278Z,5.72
2018-12-08T07:31:46.325Z,5.64
2018-12-08T07:32:56.025Z,5.65
2018-12-08T07:34:05.969Z,5.74
2018-12-08T07:35:15.664Z,5.69
2018-12-08T07:36:25.604Z,5.65
2018-12-08T07:37:35.543Z,5.7
2018-12-08T07:38:45.234Z,5.72
2018-12-08T07:39:54.920Z,5.76
2018-12-08T07:41:05.293Z,5.69
2018-12-08T07:42:15.345Z,5.76
2018-12-08T07:43:24.808Z,5.7
2018-12-08T07:44:34.505Z,5.72
2018-12-08T07:45:44.544Z,5.73
2018-12-08T07:46:54.497Z,5.73
2018-12-08T07:48:04.187Z,5.79
2018-12-08T07:49:13.892Z,5.84
2018-12-08T07:50:23.333Z,5.81
2018-12-08T07:51:33.265Z,5.76
2018-12-08T07:52:43.056Z,5.79
2018-12-08T07:53:52.573Z,5.76
2018-12-08T07:55:02.516Z,5.79
2018-12-08T07:56:12.456Z,5.84
2018-12-08T07:57:22.162Z,5.74
2018-12-08T07:58:32.120Z,5.76
2018-12-08T07:59:42.064Z,5.83
2018-12-08T08:00:51.752Z,5.84
2018-12-08T08:02:01.780Z,5.87
2018-12-08T08:03:11.501Z,5.91
2018-12-08T08:04:21.183Z,5.87
2018-12-08T08:05:30.898Z,5.94
2018-12-08T08:06:40.847Z,5.94
2018-12-08T08:07:50.802Z,5.95
2018-12-08T08:09:00.499Z,5.98
2018-12-08T08:10:10.205Z,5.87
2018-12-08T08:11:19.953Z,5.94
2018-12-08T08:12:29.922Z,5.99
2018-12-08T08:13:39.612Z,6.12
2018-12-08T08:14:49.311Z,6.05
2018-12-08T08:15:59.003Z,5.99
2018-12-08T08:17:08.962Z,6.09
2018-12-08T08:18:18.923Z,6.16
2018-12-08T08:19:28.629Z,6.1
2018-12-08T08:20:38.566Z,6.09
2018-12-08T08:21:48.506Z,6.15
2018-12-08T08:22:58.212Z,6.16
2018-12-08T08:24:08.155Z,6.16
2018-12-08T08:25:17.833Z,6.25
2018-12-08T08:26:27.760Z,6.2
2018-12-08T08:27:37.698Z,6.28
2018-12-08T08:28:47.395Z,6.36
2018-12-08T08:29:56.837Z,6.35
2018-12-08T08:31:06.767Z,6.31
2018-12-08T08:32:16.468Z,6.26
2018-12-08T08:33:26.409Z,6.35
2018-12-08T08:34:36.401Z,6.39
2018-12-08T08:35:46.345Z,6.32
2018-12-08T08:36:56.288Z,6.36
2018-12-08T08:38:06.231Z,6.32
2018-12-08T08:39:15.666Z,6.31
2018-12-08T08:40:25.619Z,6.41
2018-12-08T08:41:35.566Z,6.38
2018-12-08T08:42:45.003Z,6.46
2018-12-08T08:43:56.230Z,6.47
2018-12-08T08:45:06.029Z,6.36
2018-12-08T08:46:15.991Z,6.36
2018-12-08T08:47:25.687Z,6.46
2018-12-08T08:48:35.650Z,6.54
2018-12-08T08:49:45.591Z,6.54
2018-12-08T08:50:55.529Z,6.53
2018-12-08T08:52:05.461Z,6.54
2018-12-08T08:53:14.908Z,6.59
2018-12-08T08:54:24.857Z,6.6
2018-12-08T08:55:34.839Z,6.6
2018-12-08T08:56:44.526Z,6.59
2018-12-08T08:57:54.049Z,6.71
2018-12-08T08:59:04.000Z,6.72
2018-12-08T09:00:13.929Z,6.67
2018-12-08T09:01:23.628Z,6.85
2018-12-08T09:02:33.570Z,6.83
2018-12-08T09:03:43.504Z,6.9
2018-12-08T09:04:53.198Z,6.95
2018-12-08T09:06:03.149Z,6.92
2018-12-08T09:07:12.609Z,6.95
2018-12-08T09:08:22.562Z,6.95
2018-12-08T09:09:32.518Z,7.03
2018-12-08T09:10:42.455Z,6.95
2018-12-08T09:11:52.481Z,7.05
2018-12-08T09:13:02.413Z,7.05
2018-12-08T09:14:18.073Z,7.01
2018-12-08T09:15:27.495Z,7.04
2018-12-08T09:16:37.448Z,7.04
2018-12-08T09:17:47.396Z,7.04
2018-12-08T09:18:57.408Z,7.04
2018-12-08T09:20:07.357Z,7.14
2018-12-08T09:21:17.063Z,7.13
2018-12-08T09:22:26.999Z,7.11
2018-12-08T09:23:36.678Z,7.13
2018-12-08T09:24:46.377Z,7.11
2018-12-08T09:25:56.338Z,7.15
2018-12-08T09:27:05.782Z,7.19
2018-12-08T09:28:15.740Z,7.19
2018-12-08T09:29:25.693Z,7.37
2018-12-08T09:30:35.129Z,7.33
2018-12-08T09:31:44.849Z,7.32
2018-12-08T09:32:54.792Z,7.29
2018-12-08T09:34:04.842Z,7.33
2018-12-08T09:35:14.548Z,7.36
2018-12-08T09:36:24.477Z,7.5
2018-12-08T09:37:34.160Z,7.55
2018-12-08T09:38:44.106Z,7.62
2018-12-08T09:39:54.049Z,7.64
2018-12-08T09:41:04.850Z,7.64
2018-12-08T09:42:14.791Z,7.64
2018-12-08T09:43:24.461Z,7.62
2018-12-08T09:44:34.182Z,7.8
2018-12-08T09:45:46.813Z,7.69
2018-12-08T09:46:56.248Z,7.84
2018-12-08T09:48:05.696Z,7.81
2018-12-08T09:49:15.458Z,7.7
2018-12-08T09:50:25.155Z,7.78
2018-12-08T09:51:35.112Z,7.69
2018-12-08T09:52:44.810Z,7.74
2018-12-08T09:53:54.590Z,7.64
2018-12-08T09:55:04.300Z,7.67
2018-12-08T09:56:14.271Z,7.7
2018-12-08T09:57:24.210Z,7.61
2018-12-08T09:58:34.169Z,7.62
2018-12-08T09:59:44.127Z,7.72
2018-12-08T10:00:54.303Z,7.77
2018-12-08T10:02:04.238Z,7.95
2018-12-08T10:03:14.071Z,8.05
2018-12-08T10:04:24.018Z,8.21
2018-12-08T10:05:33.953Z,8.39
2018-12-08T10:06:43.912Z,8.46
2018-12-08T10:07:53.614Z,8.57
2018-12-08T10:09:03.570Z,8.52
2018-12-08T10:10:13.029Z,8.36
2018-12-08T10:11:22.982Z,8.24
2018-12-08T10:12:32.928Z,8.23
2018-12-08T10:13:42.884Z,8.11
2018-12-08T10:14:52.572Z,8.09
2018-12-08T10:16:02.261Z,8.08
2018-12-08T10:17:11.959Z,8.08
2018-12-08T10:18:21.654Z,8.03
2018-12-08T10:19:31.613Z,8.09
2018-12-08T10:20:41.573Z,8.03
2018-12-08T10:21:51.257Z,8.08
2018-12-08T10:23:01.216Z,8.09
2018-12-08T10:24:11.147Z,8.17
2018-12-08T10:25:21.098Z,8.17
2018-12-08T10:26:31.038Z,8.14
2018-12-08T10:27:42.723Z,8.14
2018-12-08T10:28:52.204Z,8.11
2018-12-08T10:30:01.885Z,8.03
2018-12-08T10:31:11.584Z,8.02
2018-12-08T10:32:21.536Z,7.99
2018-12-08T10:33:32.853Z,7.98
2018-12-08T10:34:42.548Z,7.85
2018-12-08T10:35:52.506Z,7.85
2018-12-08T10:37:02.450Z,7.84
2018-12-08T10:38:12.395Z,7.88
2018-12-08T10:39:22.082Z,7.85
2018-12-08T10:40:31.294Z,7.87
2018-12-08T10:41:41.238Z,7.85
2018-12-08T10:42:50.942Z,7.81
2018-12-08T10:44:00.387Z,7.9
2018-12-08T10:45:10.073Z,7.84
2018-12-08T10:46:19.754Z,7.88
2018-12-08T10:47:29.698Z,7.9
2018-12-08T10:48:39.387Z,7.85
2018-12-08T10:49:48.694Z,7.96
2018-12-08T10:50:58.397Z,7.95
2018-12-08T10:52:08.342Z,7.99
2018-12-08T10:53:18.287Z,8.02
2018-12-08T10:54:29.464Z,8.01
2018-12-08T10:55:39.428Z,8.01
2018-12-08T10:56:49.376Z,7.99
2018-12-08T10:57:59.320Z,8.05
2018-12-08T10:59:09.262Z,8.08
2018-12-08T11:00:19.215Z,8.01
2018-12-08T11:01:28.935Z,8.06
2018-12-08T11:02:38.382Z,8.02
2018-12-08T11:03:48.081Z,8.06
2018-12-08T11:04:57.780Z,8.09
2018-12-08T11:06:07.225Z,8.11
2018-12-08T11:07:16.924Z,8.06
2018-12-08T11:08:26.863Z,8.06
2018-12-08T11:09:36.832Z,8.09
2018-12-08T11:10:46.775Z,8.09
2018-12-08T11:11:56.486Z,8.05
2018-12-08T11:13:06.439Z,8.09
2018-12-08T11:14:16.139Z,8.09
2018-12-08T11:15:25.838Z,8.06
2018-12-08T11:16:35.030Z,8.11
2018-12-08T11:17:44.493Z,8.06
2018-12-08T11:18:54.433Z,8.09
2018-12-08T11:20:04.458Z,8.13
2018-12-08T11:21:14.555Z,8.24
2018-12-08T11:22:24.526Z,8.21
2018-12-08T11:23:34.534Z,8.18
2018-12-08T11:24:46.080Z,8.23
2018-12-08T11:25:55.777Z,8.21
2018-12-08T11:27:05.210Z,8.14
2018-12-08T11:28:14.902Z,8.2
2018-12-08T11:29:24.850Z,8.31
2018-12-08T11:30:36.245Z,8.18
2018-12-08T11:31:46.289Z,8.32
2018-12-08T11:32:55.984Z,8.28
2018-12-08T11:34:05.693Z,8.34
2018-12-08T11:35:15.645Z,8.41
2018-12-08T11:36:25.601Z,8.34
2018-12-08T11:37:35.543Z,8.38
2018-12-08T11:38:45.489Z,8.38
2018-12-08T11:39:55.427Z,8.39
2018-12-08T11:41:05.398Z,8.34
2018-12-08T11:42:15.340Z,8.5
2018-12-08T11:43:26.015Z,8.38
2018-12-08T11:44:35.962Z,8.52
2018-12-08T11:45:45.905Z,8.5
2018-12-08T11:46:55.596Z,8.66
2018-12-08T11:48:05.294Z,8.59
2018-12-08T11:49:14.750Z,8.64
2018-12-08T11:50:24.445Z,8.69
2018-12-08T11:51:34.143Z,8.71
2018-12-08T11:52:44.112Z,8.72
2018-12-08T11:53:53.560Z,8.79
2018-12-08T11:55:03.513Z,8.81
2018-12-08T11:56:13.482Z,8.84
2018-12-08T11:57:23.417Z,8.81
2018-12-08T11:58:33.119Z,8.75
2018-12-08T11:59:43.075Z,8.78
2018-12-08T12:00:53.018Z,8.84
2018-12-08T12:02:02.718Z,8.77
2018-12-08T12:03:12.651Z,8.79
2018-12-08T12:04:22.340Z,8.79
2018-12-08T12:05:32.286Z,8.81
2018-12-08T12:06:41.984Z,8.82
2018-12-08T12:07:51.928Z,8.79
2018-12-08T12:09:01.865Z,8.89
2018-12-08T12:10:11.177Z,8.81
2018-12-08T12:11:21.129Z,8.82
2018-12-08T12:12:31.077Z,8.79
2018-12-08T12:13:40.775Z,8.82
2018-12-08T12:14:50.703Z,8.84
2018-12-08T12:16:00.396Z,8.92
2018-12-08T12:17:10.436Z,8.93
2018-12-08T12:18:20.370Z,8.92
2018-12-08T12:19:30.066Z,8.95
2018-12-08T12:20:40.024Z,8.9
2018-12-08T12:21:49.717Z,8.92
2018-12-08T12:22:59.677Z,8.92
2018-12-08T12:24:09.383Z,8.95
2018-12-08T12:25:19.334Z,8.95
2018-12-08T12:26:28.840Z,8.84
2018-12-08T12:27:38.778Z,8.86
2018-12-08T12:28:48.468Z,8.87
2018-12-08T12:29:58.417Z,8.87
2018-12-08T12:31:08.355Z,8.95
2018-12-08T12:32:18.290Z,8.92
2018-12-08T12:33:27.975Z,8.97
2018-12-08T12:34:37.915Z,8.93
2018-12-08T12:35:47.612Z,9
2018-12-08T12:36:57.558Z,8.97
2018-12-08T12:38:07.252Z,9
2018-12-08T12:39:16.735Z,9.03
2018-12-08T12:40:26.433Z,9.02
2018-12-08T12:41:36.400Z,9.05
2018-12-08T12:42:46.404Z,9.02
2018-12-08T12:43:56.106Z,8.95
2018-12-08T12:45:06.069Z,8.95
2018-12-08T12:46:16.003Z,8.84
2018-12-08T12:47:25.690Z,8.99
2018-12-08T12:48:35.660Z,8.9
2018-12-08T12:49:45.616Z,8.96
2018-12-08T12:50:55.067Z,8.96
2018-12-08T12:52:04.766Z,8.87
2018-12-08T12:53:15.583Z,8.97
2018-12-08T12:54:25.282Z,8.92
2018-12-08T12:55:35.207Z,8.81
2018-12-08T12:56:45.155Z,8.86
2018-12-08T12:57:54.839Z,8.86
2018-12-08T12:59:04.791Z,8.86
2018-12-08T13:00:14.728Z,8.81
2018-12-08T13:01:24.671Z,8.82
2018-12-08T13:02:34.613Z,8.79
2018-12-08T13:03:44.573Z,8.84
2018-12-08T13:04:54.514Z,8.86
2018-12-08T13:06:04.457Z,8.84
2018-12-08T13:07:14.156Z,8.86
2018-12-08T13:08:23.595Z,8.89
2018-12-08T13:09:33.306Z,8.89
2018-12-08T13:10:43.010Z,8.86
2018-12-08T13:11:52.983Z,8.81
2018-12-08T13:13:02.424Z,8.9
2018-12-08T13:14:13.287Z,8.84
2018-12-08T13:15:23.334Z,8.9
2018-12-08T13:16:33.029Z,8.82
2018-12-08T13:17:42.965Z,8.93
2018-12-08T13:18:52.674Z,8.97
2018-12-08T13:20:02.638Z,8.89
2018-12-08T13:21:12.369Z,8.89
2018-12-08T13:22:22.068Z,8.87
2018-12-08T13:23:32.027Z,8.87
2018-12-08T13:24:41.967Z,8.96
2018-12-08T13:25:51.753Z,9
2018-12-08T13:27:01.770Z,8.96
2018-12-08T13:28:11.493Z,8.96
2018-12-08T13:29:21.184Z,8.92
2018-12-08T13:30:32.929Z,8.96
2018-12-08T13:31:42.899Z,8.93
2018-12-08T13:32:52.601Z,8.96
2018-12-08T13:34:02.554Z,8.97
2018-12-08T13:35:12.516Z,9
2018-12-08T13:36:22.208Z,8.92
2018-12-08T13:37:32.152Z,8.97
2018-12-08T13:38:41.855Z,8.95
2018-12-08T13:39:51.803Z,8.84
2018-12-08T13:41:01.743Z,8.95
2018-12-08T13:42:11.187Z,9
2018-12-08T13:43:21.119Z,8.93
2018-12-08T13:44:31.083Z,8.96
2018-12-08T13:45:41.060Z,8.99
2018-12-08T13:46:51.004Z,8.93
2018-12-08T13:48:00.216Z,8.97
2018-12-08T13:49:10.163Z,8.97
2018-12-08T13:50:20.118Z,8.93
2018-12-08T13:51:29.818Z,8.96
2018-12-08T13:52:39.511Z,8.81
2018-12-08T13:53:48.701Z,8.89
2018-12-08T13:54:58.637Z,8.87
2018-12-08T13:56:08.723Z,8.86
2018-12-08T13:57:18.420Z,8.77
2018-12-08T13:58:28.381Z,8.74
2018-12-08T13:59:38.074Z,8.64
2018-12-08T14:00:47.767Z,8.53
2018-12-08T14:01:57.707Z,8.35
2018-12-08T14:03:07.648Z,8.2
2018-12-08T14:04:17.610Z,8.11
2018-12-08T14:05:27.564Z,8.02
2018-12-08T14:06:37.525Z,8.02
2018-12-08T14:07:47.471Z,7.93
2018-12-08T14:08:57.411Z,7.85
2018-12-08T14:10:07.103Z,7.83
2018-12-08T14:11:17.050Z,7.84
2018-12-08T14:12:26.987Z,7.9
2018-12-08T14:13:36.987Z,7.8
2018-12-08T14:14:46.689Z,7.77
2018-12-08T14:15:56.384Z,7.75
2018-12-08T14:17:06.322Z,7.59
2018-12-08T14:18:16.261Z,7.62
2018-12-08T14:19:26.319Z,7.62
2018-12-08T14:20:35.794Z,7.66
2018-12-08T14:21:45.742Z,7.64
2018-12-08T14:22:55.691Z,7.59
2018-12-08T14:24:05.647Z,7.61
2018-12-08T14:25:15.604Z,7.64
2018-12-08T14:26:25.316Z,7.59
2018-12-08T14:27:34.510Z,7.64
2018-12-08T14:28:44.453Z,7.58
2018-12-08T14:29:53.905Z,7.66
2018-12-08T14:31:03.600Z,7.61
2018-12-08T14:32:13.532Z,7.69
2018-12-08T14:33:23.507Z,7.61
2018-12-08T14:34:33.450Z,7.64
2018-12-08T14:35:42.906Z,7.59
2018-12-08T14:36:52.841Z,7.59
2018-12-08T14:38:02.594Z,7.53
2018-12-08T14:39:12.294Z,7.53
2018-12-08T14:40:21.989Z,7.48
2018-12-08T14:41:31.705Z,7.5
2018-12-08T14:42:41.394Z,7.43
2018-12-08T14:43:51.069Z,7.53
2018-12-08T14:45:01.019Z,7.39
2018-12-08T14:46:10.983Z,7.46
2018-12-08T14:47:20.682Z,7.44
2018-12-08T14:48:30.631Z,7.44
2018-12-08T14:49:40.323Z,7.51
2018-12-08T14:50:50.274Z,7.55
2018-12-08T14:52:00.211Z,7.46
2018-12-08T14:53:09.904Z,7.48
2018-12-08T14:54:19.944Z,7.55
2018-12-08T14:55:29.882Z,7.5
2018-12-08T14:56:39.819Z,7.5
2018-12-08T14:57:49.807Z,7.53
2018-12-08T14:58:59.749Z,7.61
2018-12-08T15:00:09.525Z,7.59
2018-12-08T15:01:19.229Z,7.67
2018-12-08T15:02:29.174Z,7.66
2018-12-08T15:03:39.117Z,7.72
2018-12-08T15:04:48.566Z,7.77
2018-12-08T15:05:58.501Z,7.8
2018-12-08T15:07:08.266Z,7.72
2018-12-08T15:08:18.218Z,7.75
2018-12-08T15:09:27.905Z,7.78
2018-12-08T15:10:37.624Z,7.74
2018-12-08T15:11:47.308Z,7.78
2018-12-08T15:12:57.250Z,7.78
2018-12-08T15:14:07.292Z,7.78
2018-12-08T15:15:16.985Z,7.75
2018-12-08T15:16:26.929Z,7.77
2018-12-08T15:17:36.629Z,7.78
2018-12-08T15:18:46.326Z,7.78
2018-12-08T15:19:56.270Z,7.9
2018-12-08T15:21:05.951Z,7.78
2018-12-08T15:22:15.906Z,7.88
2018-12-08T15:23:25.847Z,7.88
2018-12-08T15:24:35.793Z,7.96
2018-12-08T15:25:45.756Z,7.99
2018-12-08T15:26:55.691Z,8.02
2018-12-08T15:28:05.649Z,8.02
2018-12-08T15:29:15.120Z,8.01
2018-12-08T15:30:24.814Z,7.99
2018-12-08T15:31:34.760Z,7.99
2018-12-08T15:32:44.707Z,7.87
2018-12-08T15:33:54.462Z,8.06